createdAt,value
2018-10-07T06:42:15.609Z,1016.90
2018-10-07T06:44:49.953Z,1016.98
2018-10-07T06:46:16.893Z,1017.01
2018-10-07T06:47:44.120Z,1017.05
2018-10-07T06:49:11.756Z,1017.11
2018-10-07T06:50:39.090Z,1017.15
2018-10-07T06:52:06.354Z,1017.20
2018-10-07T06:53:33.621Z,1017.23
2018-10-07T06:55:00.819Z,1017.23
2018-10-07T06:56:27.964Z,1017.29
2018-10-07T07:01:09.274Z,1017.40
2018-10-07T07:02:35.742Z,1017.46
2018-10-07T07:04:12.670Z,1017.48
2018-10-07T07:05:39.633Z,1017.55
2018-10-07T07:07:07.143Z,1017.59
2018-10-07T07:08:34.425Z,1017.61
2018-10-07T07:10:01.938Z,1017.64
2018-10-07T07:11:29.273Z,1017.63
2018-10-07T07:12:56.823Z,1017.62
2018-10-07T07:14:23.870Z,1017.62
2018-10-07T07:15:51.329Z,1017.64
2018-10-07T07:17:18.642Z,1017.62
2018-10-07T07:18:45.962Z,1017.65
2018-10-07T07:20:12.728Z,1017.61
2018-10-07T07:21:39.904Z,1017.63
2018-10-07T07:23:07.391Z,1017.61
2018-10-07T07:24:34.427Z,1017.66
2018-10-07T07:26:01.721Z,1017.66
2018-10-07T07:27:29.076Z,1017.61
2018-10-07T07:28:56.515Z,1017.64
2018-10-07T07:30:23.971Z,1017.64
2018-10-07T07:31:51.291Z,1017.76
2018-10-07T07:33:18.643Z,1017.87
2018-10-07T07:34:45.860Z,1017.94
2018-10-07T07:36:13.255Z,1017.94
2018-10-07T07:37:40.749Z,1017.93
2018-10-07T07:39:08.041Z,1017.93
2018-10-07T07:40:35.426Z,1017.98
2018-10-07T07:42:02.842Z,1018.07
2018-10-07T07:43:30.000Z,1018.11
2018-10-07T07:44:57.315Z,1018.13
2018-10-07T07:46:24.737Z,1018.16
2018-10-07T07:47:52.118Z,1018.24
2018-10-07T07:49:19.475Z,1018.30
2018-10-07T07:50:46.869Z,1018.33
2018-10-07T07:52:14.097Z,1018.35
2018-10-07T07:53:41.701Z,1018.42
2018-10-07T07:55:08.967Z,1018.49
2018-10-07T07:56:36.397Z,1018.53
2018-10-07T07:58:03.932Z,1018.58
2018-10-07T07:59:31.377Z,1018.61
2018-10-07T08:00:58.553Z,1018.61
2018-10-07T08:02:25.972Z,1018.63
2018-10-07T08:03:53.453Z,1018.64
2018-10-07T08:05:20.566Z,1018.67
2018-10-07T08:06:47.992Z,1018.72
2018-10-07T08:08:15.286Z,1018.78
2018-10-07T08:09:42.363Z,1018.81
2018-10-07T08:11:09.655Z,1018.84
2018-10-07T08:12:36.839Z,1018.85
2018-10-07T08:14:04.123Z,1018.90
2018-10-07T08:15:31.391Z,1018.91
2018-10-07T08:16:58.655Z,1018.94
2018-10-07T08:18:25.949Z,1018.94
2018-10-07T08:19:53.419Z,1018.92
2018-10-07T08:21:20.654Z,1018.96
2018-10-07T08:22:48.005Z,1018.97
2018-10-07T08:24:15.363Z,1019.04
2018-10-07T08:25:42.720Z,1019.06
2018-10-07T08:27:10.056Z,1019.10
2018-10-07T08:28:37.354Z,1019.07
2018-10-07T08:30:04.726Z,1019.01
2018-10-07T08:31:32.226Z,1018.98
2018-10-07T08:32:59.288Z,1019.00
2018-10-07T08:34:26.655Z,1019.10
2018-10-07T08:35:53.914Z,1019.12
2018-10-07T08:37:21.195Z,1019.14
2018-10-07T08:38:48.634Z,1019.16
2018-10-07T08:40:15.977Z,1019.12
2018-10-07T08:41:43.349Z,1019.09
2018-10-07T08:43:10.450Z,1019.08
2018-10-07T08:44:37.876Z,1019.00
2018-10-07T08:46:05.055Z,1018.96
2018-10-07T08:47:32.476Z,1018.91
2018-10-07T08:48:59.911Z,1018.94
2018-10-07T08:50:27.261Z,1018.99
2018-10-07T08:51:54.478Z,1019.07
2018-10-07T08:53:21.731Z,1019.15
2018-10-07T08:54:48.882Z,1019.15
2018-10-07T08:56:16.441Z,1019.18
2018-10-07T08:57:43.628Z,1019.23
2018-10-07T08:59:11.075Z,1019.26
2018-10-07T09:00:38.364Z,1019.37
2018-10-07T09:02:05.918Z,1019.42
2018-10-07T09:03:33.402Z,1019.45
2018-10-07T09:05:00.877Z,1019.51
2018-10-07T09:06:28.392Z,1019.49
2018-10-07T09:07:55.741Z,1019.51
2018-10-07T09:09:23.190Z,1019.50
2018-10-07T09:10:50.651Z,1019.53
2018-10-07T09:12:17.926Z,1019.57
2018-10-07T09:13:45.388Z,1019.56
2018-10-07T09:15:12.658Z,1019.57
2018-10-07T09:16:40.356Z,1019.60
2018-10-07T09:18:07.723Z,1019.63
2018-10-07T09:19:35.172Z,1019.70
2018-10-07T09:21:02.747Z,1019.74
2018-10-07T09:22:30.203Z,1019.77
2018-10-07T09:23:57.691Z,1019.80
2018-10-07T09:25:25.111Z,1019.85
2018-10-07T09:26:52.538Z,1019.87
2018-10-07T09:28:19.812Z,1019.88
2018-10-07T09:29:47.202Z,1019.87
2018-10-07T09:31:15.709Z,1019.89
2018-10-07T09:32:42.069Z,1019.99
2018-10-07T09:34:09.377Z,1020.02
2018-10-07T09:35:36.763Z,1020.01
2018-10-07T09:37:04.089Z,1020.05
2018-10-07T09:38:31.536Z,1020.06
2018-10-07T09:39:58.932Z,1020.08
2018-10-07T09:41:26.301Z,1020.10
2018-10-07T09:42:53.497Z,1020.13
2018-10-07T09:44:21.086Z,1020.18
2018-10-07T09:45:48.278Z,1020.19
2018-10-07T09:47:15.618Z,1020.24
2018-10-07T09:48:42.928Z,1020.26
2018-10-07T09:50:10.331Z,1020.28
2018-10-07T09:51:37.590Z,1020.34
2018-10-07T09:53:05.109Z,1020.42
2018-10-07T09:54:32.375Z,1020.43
2018-10-07T09:55:59.926Z,1020.47
2018-10-07T09:57:27.249Z,1020.46
2018-10-07T09:58:54.597Z,1020.50
2018-10-07T10:00:22.188Z,1020.51
2018-10-07T10:01:49.515Z,1020.50
2018-10-07T10:03:16.845Z,1020.52
2018-10-07T10:04:44.146Z,1020.54
2018-10-07T10:06:11.488Z,1020.61
2018-10-07T10:07:38.855Z,1020.62
2018-10-07T10:09:06.158Z,1020.64
2018-10-07T10:10:33.601Z,1020.66
2018-10-07T10:12:01.105Z,1020.68
2018-10-07T10:13:28.471Z,1020.66
2018-10-07T10:14:55.835Z,1020.69
2018-10-07T10:16:23.260Z,1020.70
2018-10-07T10:17:50.732Z,1020.72
2018-10-07T10:19:18.037Z,1020.72
2018-10-07T10:20:45.155Z,1020.75
2018-10-07T10:22:12.745Z,1020.77
2018-10-07T10:23:40.317Z,1020.80
2018-10-07T10:25:07.677Z,1020.79
2018-10-07T10:26:35.246Z,1020.78
2018-10-07T10:28:02.672Z,1020.77
2018-10-07T10:29:29.990Z,1020.74
2018-10-07T10:30:57.172Z,1020.73
2018-10-07T10:32:24.737Z,1020.75
2018-10-07T10:33:52.220Z,1020.81
2018-10-07T10:35:19.609Z,1020.84
2018-10-07T10:36:47.088Z,1020.86
2018-10-07T10:38:14.434Z,1020.89
2018-10-07T10:39:41.674Z,1020.87
2018-10-07T10:41:09.142Z,1020.80
2018-10-07T10:42:36.351Z,1020.81
2018-10-07T10:44:03.857Z,1020.87
2018-10-07T10:45:31.050Z,1020.86
2018-10-07T10:46:58.608Z,1020.89
2018-10-07T10:48:26.128Z,1020.93
2018-10-07T10:49:53.559Z,1020.90
2018-10-07T10:51:21.080Z,1020.90
2018-10-07T10:52:48.621Z,1020.94
2018-10-07T10:54:16.022Z,1020.98
2018-10-07T10:55:43.361Z,1020.98
2018-10-07T10:57:10.711Z,1020.99
2018-10-07T10:58:37.933Z,1020.98
2018-10-07T11:00:05.457Z,1021.04
2018-10-07T11:01:32.766Z,1021.03
2018-10-07T11:03:00.242Z,1021.04
2018-10-07T11:04:27.747Z,1021.10
2018-10-07T11:05:55.066Z,1021.09
2018-10-07T11:07:22.569Z,1021.02
2018-10-07T11:08:49.886Z,1021.02
2018-10-07T11:10:17.327Z,1020.97
2018-10-07T11:11:44.587Z,1020.95
2018-10-07T11:13:12.090Z,1020.94
2018-10-07T11:14:39.422Z,1020.94
2018-10-07T11:16:06.893Z,1020.93
2018-10-07T11:17:34.083Z,1020.95
2018-10-07T11:19:01.759Z,1020.95
2018-10-07T11:20:29.032Z,1020.95
2018-10-07T11:21:56.491Z,1020.90
2018-10-07T11:23:23.993Z,1020.86
2018-10-07T11:24:51.587Z,1020.89
2018-10-07T11:26:19.061Z,1020.91
2018-10-07T11:27:46.289Z,1020.87
2018-10-07T11:29:13.802Z,1020.88
2018-10-07T11:30:41.146Z,1020.85
2018-10-07T11:32:08.639Z,1020.86
2018-10-07T11:33:36.205Z,1020.84
2018-10-07T11:35:03.656Z,1020.85
2018-10-07T11:36:31.031Z,1020.83
2018-10-07T11:37:58.587Z,1020.84
2018-10-07T11:39:26.009Z,1020.95
2018-10-07T11:40:53.485Z,1020.99
2018-10-07T11:42:20.875Z,1021.02
2018-10-07T11:43:48.294Z,1021.06
2018-10-07T11:45:15.668Z,1021.08
2018-10-07T11:46:43.164Z,1021.05
2018-10-07T11:48:10.446Z,1021.09
2018-10-07T11:49:37.908Z,1021.14
2018-10-07T11:51:05.341Z,1021.14
2018-10-07T11:52:32.848Z,1021.14
2018-10-07T11:54:00.283Z,1021.17
2018-10-07T11:55:27.581Z,1021.24
2018-10-07T11:56:55.109Z,1021.28
2018-10-07T11:58:22.582Z,1021.30
2018-10-07T11:59:50.124Z,1021.28
2018-10-07T12:01:17.592Z,1021.34
2018-10-07T12:02:45.146Z,1021.37
2018-10-07T12:04:12.472Z,1021.39
2018-10-07T12:05:40.931Z,1021.43
2018-10-07T12:07:07.324Z,1021.43
2018-10-07T12:08:34.692Z,1021.46
2018-10-07T12:10:02.293Z,1021.50
2018-10-07T12:11:29.568Z,1021.52
2018-10-07T12:12:56.986Z,1021.55
2018-10-07T12:14:24.473Z,1021.60
2018-10-07T12:15:51.842Z,1021.61
2018-10-07T12:17:19.383Z,1021.61
2018-10-07T12:18:46.541Z,1021.60
2018-10-07T12:20:14.026Z,1021.67
2018-10-07T12:21:41.367Z,1021.69
2018-10-07T12:23:08.627Z,1021.75
2018-10-07T12:24:35.915Z,1021.77
2018-10-07T12:26:03.759Z,1021.82
2018-10-07T12:27:31.253Z,1021.79
2018-10-07T12:28:58.821Z,1021.81
2018-10-07T12:30:25.788Z,1021.85
2018-10-07T12:31:53.232Z,1021.80
2018-10-07T12:33:20.808Z,1021.87
2018-10-07T12:34:48.003Z,1021.87
2018-10-07T12:36:15.238Z,1021.93
2018-10-07T12:37:42.448Z,1021.94
2018-10-07T12:39:09.930Z,1021.96
2018-10-07T12:40:37.387Z,1021.98
2018-10-07T12:42:04.518Z,1022.02
2018-10-07T12:43:32.213Z,1022.07
2018-10-07T12:44:59.488Z,1022.05
2018-10-07T12:46:26.951Z,1022.09
2018-10-07T12:47:54.243Z,1022.08
2018-10-07T12:49:21.680Z,1022.09
2018-10-07T12:50:49.175Z,1022.10
2018-10-07T12:52:16.496Z,1022.10
2018-10-07T12:53:43.828Z,1022.10
2018-10-07T12:55:11.230Z,1022.14
2018-10-07T12:56:38.741Z,1022.12
2018-10-07T12:58:06.270Z,1022.18
2018-10-07T12:59:33.491Z,1022.22
2018-10-07T13:01:01.074Z,1022.22
2018-10-07T13:02:28.376Z,1022.27
2018-10-07T13:03:55.857Z,1022.27
2018-10-07T13:05:23.060Z,1022.26
2018-10-07T13:06:50.704Z,1022.31
2018-10-07T13:08:17.991Z,1022.34
2018-10-07T13:09:45.503Z,1022.36
2018-10-07T13:11:12.780Z,1022.37
2018-10-07T13:12:40.247Z,1022.37
2018-10-07T13:14:07.749Z,1022.37
2018-10-07T13:15:34.999Z,1022.39
2018-10-07T13:17:02.531Z,1022.37
2018-10-07T13:18:30.161Z,1022.39
2018-10-07T13:19:57.562Z,1022.44
2018-10-07T13:21:24.942Z,1022.47
2018-10-07T13:22:52.500Z,1022.48
2018-10-07T13:24:20.131Z,1022.51
2018-10-07T13:25:47.404Z,1022.51
2018-10-07T13:27:14.863Z,1022.51
2018-10-07T13:28:42.205Z,1022.51
2018-10-07T13:30:09.622Z,1022.53
2018-10-07T13:31:37.236Z,1022.57
2018-10-07T13:33:04.606Z,1022.62
2018-10-07T13:34:31.911Z,1022.66
2018-10-07T13:35:59.283Z,1022.66
2018-10-07T13:37:26.634Z,1022.66
2018-10-07T13:38:53.994Z,1022.67
2018-10-07T13:40:21.449Z,1022.68
2018-10-07T13:41:48.757Z,1022.72
2018-10-07T13:43:16.063Z,1022.71
2018-10-07T13:44:43.274Z,1022.72
2018-10-07T13:46:10.818Z,1022.71
2018-10-07T13:47:38.160Z,1022.75
2018-10-07T13:49:05.676Z,1022.81
2018-10-07T13:50:33.196Z,1022.86
2018-10-07T13:52:00.676Z,1022.89
2018-10-07T13:53:28.350Z,1022.89
2018-10-07T13:54:55.657Z,1022.92
2018-10-07T13:56:22.958Z,1022.93
2018-10-07T13:57:50.345Z,1022.94
2018-10-07T13:59:17.670Z,1022.99
2018-10-07T14:00:45.159Z,1023.01
2018-10-07T14:02:12.395Z,1023.05
2018-10-07T14:03:39.860Z,1023.07
2018-10-07T14:05:07.310Z,1023.10
2018-10-07T14:06:34.830Z,1023.09
2018-10-07T14:08:02.279Z,1023.05
2018-10-07T14:09:29.695Z,1023.06
2018-10-07T14:10:57.197Z,1023.10
2018-10-07T14:12:24.730Z,1023.15
2018-10-07T14:13:52.096Z,1023.20
2018-10-07T14:15:19.567Z,1023.20
2018-10-07T14:16:46.859Z,1023.21
2018-10-07T14:18:14.293Z,1023.20
2018-10-07T14:19:41.877Z,1023.23
2018-10-07T14:21:09.375Z,1023.23
2018-10-07T14:22:36.912Z,1023.23
2018-10-07T14:24:04.343Z,1023.19
2018-10-07T14:25:31.772Z,1023.17
2018-10-07T14:26:59.025Z,1023.16
2018-10-07T14:28:26.292Z,1023.19
2018-10-07T14:29:53.689Z,1023.22
2018-10-07T14:31:21.046Z,1023.21
2018-10-07T14:32:48.639Z,1023.24
2018-10-07T14:34:15.741Z,1023.24
2018-10-07T14:35:43.074Z,1023.28
2018-10-07T14:37:10.412Z,1023.29
2018-10-07T14:38:37.708Z,1023.30
2018-10-07T14:40:05.358Z,1023.32
2018-10-07T14:41:32.971Z,1023.30
2018-10-07T14:43:00.237Z,1023.33
2018-10-07T14:44:27.786Z,1023.39
2018-10-07T14:45:54.962Z,1023.43
2018-10-07T14:47:22.280Z,1023.45
2018-10-07T14:48:49.812Z,1023.45
2018-10-07T14:50:17.029Z,1023.47
2018-10-07T14:51:47.436Z,1023.47
2018-10-07T14:53:11.514Z,1023.46
2018-10-07T14:54:38.772Z,1023.45
2018-10-07T14:56:06.099Z,1023.44
2018-10-07T14:57:33.488Z,1023.44
2018-10-07T14:59:01.025Z,1023.45
2018-10-07T15:00:28.329Z,1023.45
2018-10-07T15:01:55.712Z,1023.43
2018-10-07T15:03:23.111Z,1023.42
2018-10-07T15:04:50.410Z,1023.42
2018-10-07T15:06:17.773Z,1023.42
2018-10-07T15:07:45.223Z,1023.44
2018-10-07T15:09:12.392Z,1023.48
2018-10-07T15:10:39.675Z,1023.47
2018-10-07T15:12:06.897Z,1023.50
2018-10-07T15:13:34.408Z,1023.52
2018-10-07T15:15:01.872Z,1023.55
2018-10-07T15:16:29.302Z,1023.59
2018-10-07T15:17:56.604Z,1023.62
2018-10-07T15:19:23.971Z,1023.62
2018-10-07T15:20:51.530Z,1023.61
2018-10-07T15:22:18.887Z,1023.62
2018-10-07T15:23:46.328Z,1023.65
2018-10-07T15:25:13.558Z,1023.69
2018-10-07T15:26:40.795Z,1023.69
2018-10-07T15:28:08.218Z,1023.72
2018-10-07T15:29:35.741Z,1023.72
2018-10-07T15:31:03.212Z,1023.71
2018-10-07T15:32:30.499Z,1023.70
2018-10-07T15:33:58.031Z,1023.68
2018-10-07T15:35:25.398Z,1023.70
2018-10-07T15:36:52.824Z,1023.73
2018-10-07T15:38:20.337Z,1023.76
2018-10-07T15:39:47.583Z,1023.83
2018-10-07T15:41:14.910Z,1023.85
2018-10-07T15:42:42.451Z,1023.86
2018-10-07T15:44:09.553Z,1023.88
2018-10-07T15:45:36.785Z,1023.90
2018-10-07T15:47:04.331Z,1023.92
2018-10-07T15:48:31.036Z,1023.91
2018-10-07T15:49:58.506Z,1023.92
2018-10-07T15:51:25.569Z,1023.94
2018-10-07T15:52:52.994Z,1023.95
2018-10-07T15:54:20.246Z,1024.00
2018-10-07T15:55:47.627Z,1024.04
2018-10-07T15:57:15.061Z,1024.06
2018-10-07T15:58:42.437Z,1024.04
2018-10-07T16:00:09.138Z,1024.07
2018-10-07T16:01:36.219Z,1024.08
2018-10-07T16:03:03.546Z,1024.07
2018-10-07T16:04:30.677Z,1024.06
2018-10-07T16:05:58.044Z,1024.07
2018-10-07T16:07:25.300Z,1024.09
2018-10-07T16:08:52.830Z,1024.11
2018-10-07T16:10:20.173Z,1024.14
2018-10-07T16:11:47.656Z,1024.17
2018-10-07T16:13:14.879Z,1024.21
2018-10-07T16:14:42.229Z,1024.28
2018-10-07T16:16:09.433Z,1024.29
2018-10-07T16:17:36.736Z,1024.28
2018-10-07T16:19:04.370Z,1024.29
2018-10-07T16:20:31.466Z,1024.31
2018-10-07T16:21:58.603Z,1024.34
2018-10-07T16:23:25.917Z,1024.37
2018-10-07T16:24:53.619Z,1024.40
2018-10-07T16:26:20.919Z,1024.44
2018-10-07T16:27:48.120Z,1024.42
2018-10-07T16:29:15.447Z,1024.40
2018-10-07T16:30:42.867Z,1024.42
2018-10-07T16:32:10.183Z,1024.46
2018-10-07T16:33:37.551Z,1024.47
2018-10-07T16:35:04.893Z,1024.50
2018-10-07T16:36:32.458Z,1024.53
2018-10-07T16:37:59.399Z,1024.59
2018-10-07T16:39:26.787Z,1024.63
2018-10-07T16:40:54.079Z,1024.68
2018-10-07T16:42:21.537Z,1024.71
2018-10-07T16:43:49.124Z,1024.76
2018-10-07T16:45:16.587Z,1024.77
2018-10-07T16:46:43.763Z,1024.78
2018-10-07T16:48:11.024Z,1024.81
2018-10-07T16:49:38.295Z,1024.85
2018-10-07T16:51:05.447Z,1024.86
2018-10-07T16:52:32.933Z,1024.89
2018-10-07T16:54:00.328Z,1024.90
2018-10-07T16:55:27.689Z,1024.92
2018-10-07T16:56:55.055Z,1024.95
2018-10-07T16:58:22.396Z,1024.98
2018-10-07T16:59:49.753Z,1025.05
2018-10-07T17:01:17.085Z,1025.06
2018-10-07T17:02:44.380Z,1025.08
2018-10-07T17:04:11.837Z,1025.09
2018-10-07T17:05:39.261Z,1025.13
2018-10-07T17:07:06.533Z,1025.16
2018-10-07T17:08:33.969Z,1025.16
2018-10-07T17:10:01.218Z,1025.16
2018-10-07T17:11:28.670Z,1025.17
2018-10-07T17:12:55.854Z,1025.15
2018-10-07T17:14:23.228Z,1025.15
2018-10-07T17:15:50.588Z,1025.16
2018-10-07T17:17:18.016Z,1025.11
2018-10-07T17:18:45.244Z,1025.09
2018-10-07T17:20:12.478Z,1025.10
2018-10-07T17:21:39.343Z,1025.16
2018-10-07T17:23:06.601Z,1025.17
2018-10-07T17:24:33.474Z,1025.19
2018-10-07T17:26:00.847Z,1025.23
2018-10-07T17:27:27.464Z,1025.23
2018-10-07T17:28:54.903Z,1025.22
2018-10-07T17:30:21.991Z,1025.21
2018-10-07T17:31:49.163Z,1025.25
2018-10-07T17:33:17.090Z,1025.25
2018-10-07T17:34:43.498Z,1025.27
2018-10-07T17:36:10.886Z,1025.27
2018-10-07T17:37:38.232Z,1025.25
2018-10-07T17:39:05.538Z,1025.28
2018-10-07T17:40:33.037Z,1025.30
2018-10-07T17:42:00.012Z,1025.31
2018-10-07T17:43:27.343Z,1025.31
2018-10-07T17:44:54.672Z,1025.31
2018-10-07T17:46:21.781Z,1025.29
2018-10-07T17:47:49.269Z,1025.30
2018-10-07T17:49:16.747Z,1025.33
2018-10-07T17:50:43.909Z,1025.34
2018-10-07T17:52:11.206Z,1025.34
2018-10-07T17:53:38.832Z,1025.36
2018-10-07T17:55:06.140Z,1025.39
2018-10-07T17:56:33.073Z,1025.39
2018-10-07T17:58:00.466Z,1025.40
2018-10-07T17:59:27.749Z,1025.39
2018-10-07T18:00:55.091Z,1025.37
2018-10-07T18:02:22.429Z,1025.36
2018-10-07T18:03:49.590Z,1025.38
2018-10-07T18:05:16.914Z,1025.40
2018-10-07T18:06:44.212Z,1025.39
2018-10-07T18:08:11.788Z,1025.41
2018-10-07T18:09:39.100Z,1025.39
2018-10-07T18:11:06.542Z,1025.41
2018-10-07T18:12:33.766Z,1025.47
2018-10-07T18:14:01.200Z,1025.49
2018-10-07T18:15:28.389Z,1025.52
2018-10-07T18:16:55.446Z,1025.53
2018-10-07T18:18:22.255Z,1025.57
2018-10-07T18:19:48.831Z,1025.60
2018-10-07T18:21:16.387Z,1025.59
2018-10-07T18:22:43.357Z,1025.60
2018-10-07T18:24:10.667Z,1025.65
2018-10-07T18:25:37.963Z,1025.70
2018-10-07T18:27:05.126Z,1025.73
2018-10-07T18:28:32.610Z,1025.76
2018-10-07T18:29:59.881Z,1025.81
2018-10-07T18:31:27.213Z,1025.85
2018-10-07T18:32:54.635Z,1025.91
2018-10-07T18:34:22.033Z,1025.95
2018-10-07T18:35:49.265Z,1026.00
2018-10-07T18:37:16.603Z,1026.00
2018-10-07T18:38:43.797Z,1026.05
2018-10-07T18:40:11.228Z,1026.06
2018-10-07T18:41:38.363Z,1026.10
2018-10-07T18:43:05.141Z,1026.09
2018-10-07T18:44:32.271Z,1026.08
2018-10-07T18:45:59.382Z,1026.10
2018-10-07T18:47:26.630Z,1026.13
2018-10-07T18:48:54.064Z,1026.18
2018-10-07T18:50:21.076Z,1026.21
2018-10-07T18:51:48.066Z,1026.24
2018-10-07T18:53:15.321Z,1026.24
2018-10-07T18:54:42.312Z,1026.23
2018-10-07T18:56:09.644Z,1026.24
2018-10-07T18:57:36.497Z,1026.28
2018-10-07T18:59:03.741Z,1026.33
2018-10-07T19:00:31.114Z,1026.34
2018-10-07T19:01:58.439Z,1026.33
2018-10-07T19:03:25.934Z,1026.35
2018-10-07T19:04:53.087Z,1026.35
2018-10-07T19:06:20.597Z,1026.33
2018-10-07T19:07:47.812Z,1026.34
2018-10-07T19:09:15.202Z,1026.35
2018-10-07T19:10:42.223Z,1026.35
2018-10-07T19:12:09.489Z,1026.35
2018-10-07T19:13:37.123Z,1026.36
2018-10-07T19:15:04.575Z,1026.36
2018-10-07T19:16:31.808Z,1026.36
2018-10-07T19:17:59.204Z,1026.39
2018-10-07T19:19:26.563Z,1026.38
2018-10-07T19:20:53.436Z,1026.40
2018-10-07T19:22:20.253Z,1026.40
2018-10-07T19:23:47.599Z,1026.41
2018-10-07T19:25:14.711Z,1026.42
2018-10-07T19:26:41.960Z,1026.43
2018-10-07T19:28:09.230Z,1026.46
2018-10-07T19:29:36.575Z,1026.46
2018-10-07T19:31:03.897Z,1026.51
2018-10-07T19:32:31.319Z,1026.52
2018-10-07T19:33:58.576Z,1026.53
2018-10-07T19:35:25.895Z,1026.52
2018-10-07T19:36:53.113Z,1026.49
2018-10-07T19:38:20.010Z,1026.47
2018-10-07T19:39:47.049Z,1026.46
2018-10-07T19:41:14.225Z,1026.47
2018-10-07T19:42:41.722Z,1026.52
2018-10-07T19:44:09.141Z,1026.52
2018-10-07T19:45:35.927Z,1026.51
2018-10-07T19:47:03.119Z,1026.44
2018-10-07T19:48:30.380Z,1026.38
2018-10-07T19:49:57.555Z,1026.37
2018-10-07T19:51:24.700Z,1026.38
2018-10-07T19:52:52.082Z,1026.38
2018-10-07T19:54:19.276Z,1026.44
2018-10-07T19:55:46.555Z,1026.47
2018-10-07T19:57:13.986Z,1026.49
2018-10-07T19:58:41.369Z,1026.48
2018-10-07T20:00:08.261Z,1026.45
2018-10-07T20:01:35.493Z,1026.43
2018-10-07T20:03:02.374Z,1026.41
2018-10-07T20:04:29.132Z,1026.38
2018-10-07T20:05:56.391Z,1026.36
2018-10-07T20:21:07.548Z,1026.40
2018-10-07T20:22:34.192Z,1026.43
2018-10-07T20:24:01.331Z,1026.45
2018-10-07T20:25:28.528Z,1026.46
2018-10-07T20:26:56.011Z,1026.46
2018-10-07T20:28:23.236Z,1026.47
2018-10-07T20:29:50.433Z,1026.51
2018-10-07T20:31:17.862Z,1026.55
2018-10-07T20:32:45.159Z,1026.58
2018-10-07T20:34:12.197Z,1026.60
2018-10-07T20:35:39.532Z,1026.62
2018-10-07T20:37:06.793Z,1026.64
2018-10-07T20:38:34.149Z,1026.64
2018-10-07T20:40:01.004Z,1026.67
2018-10-07T20:41:28.328Z,1026.71
2018-10-07T20:42:55.747Z,1026.68
2018-10-07T20:44:23.059Z,1026.65
2018-10-07T20:45:50.313Z,1026.64
2018-10-07T20:47:17.505Z,1026.67
2018-10-07T20:48:44.803Z,1026.66
2018-10-07T20:50:11.287Z,1026.65
2018-10-07T20:51:38.449Z,1026.66
2018-10-07T20:53:05.792Z,1026.67
2018-10-07T20:54:33.113Z,1026.68
2018-10-07T20:56:00.117Z,1026.68
2018-10-07T20:57:27.314Z,1026.67
2018-10-07T20:58:54.648Z,1026.65
2018-10-07T21:00:21.756Z,1026.66
2018-10-07T21:01:48.955Z,1026.66
2018-10-07T21:03:16.074Z,1026.67
2018-10-07T21:04:43.163Z,1026.65
2018-10-07T21:06:10.048Z,1026.66
2018-10-07T21:07:37.277Z,1026.63
2018-10-07T21:09:04.078Z,1026.63
2018-10-07T21:10:31.293Z,1026.59
2018-10-07T21:11:58.062Z,1026.55
2018-10-07T21:13:25.251Z,1026.53
2018-10-07T21:14:52.705Z,1026.52
2018-10-07T21:16:19.813Z,1026.50
2018-10-07T21:17:46.762Z,1026.49
2018-10-07T21:19:14.147Z,1026.47
2018-10-07T21:20:41.328Z,1026.41
2018-10-07T21:22:08.764Z,1026.39
2018-10-07T21:23:35.902Z,1026.38
2018-10-07T21:25:03.177Z,1026.38
2018-10-07T21:26:30.086Z,1026.44
2018-10-07T21:27:56.958Z,1026.51
2018-10-07T21:37:38.754Z,1026.49
2018-10-07T21:39:05.341Z,1026.49
2018-10-07T21:40:32.572Z,1026.48
2018-10-07T21:41:59.999Z,1026.47
2018-10-07T21:43:27.101Z,1026.44
2018-10-07T21:44:53.887Z,1026.41
2018-10-07T21:46:21.453Z,1026.38
2018-10-07T21:47:48.567Z,1026.38
2018-10-07T21:49:15.857Z,1026.37
2018-10-07T21:50:42.814Z,1026.39
2018-10-07T21:52:10.226Z,1026.38
2018-10-07T21:53:37.836Z,1026.36
2018-10-07T21:55:04.372Z,1026.36
2018-10-07T21:56:31.709Z,1026.39
2018-10-07T21:57:58.898Z,1026.38
2018-10-07T21:59:25.855Z,1026.38
2018-10-07T22:00:56.163Z,1026.37
2018-10-07T22:02:20.358Z,1026.34
2018-10-07T22:03:46.873Z,1026.33
2018-10-07T22:05:13.799Z,1026.31
2018-10-07T22:06:41.060Z,1026.31
2018-10-07T22:08:08.172Z,1026.33
2018-10-07T22:09:35.300Z,1026.33
2018-10-07T22:11:02.636Z,1026.32
2018-10-07T22:12:29.278Z,1026.34
2018-10-07T22:13:56.428Z,1026.35
2018-10-07T22:15:23.523Z,1026.37
2018-10-07T22:16:50.591Z,1026.38
2018-10-07T22:30:24.753Z,1026.40
2018-10-07T22:31:50.795Z,1026.37
2018-10-07T22:33:17.668Z,1026.29
2018-10-07T22:34:44.725Z,1026.27
2018-10-07T22:36:11.781Z,1026.25
2018-10-07T22:37:38.581Z,1026.26
2018-10-07T22:39:05.382Z,1026.25
2018-10-07T22:40:32.291Z,1026.22
2018-10-07T22:41:59.097Z,1026.23
2018-10-07T22:43:26.397Z,1026.19
2018-10-07T22:44:53.649Z,1026.19
2018-10-07T22:46:20.165Z,1026.19
2018-10-07T22:47:47.205Z,1026.23
2018-10-07T22:49:14.065Z,1026.26
2018-10-07T22:50:41.189Z,1026.29
2018-10-07T22:52:07.835Z,1026.32
2018-10-07T22:53:34.376Z,1026.35
2018-10-07T22:55:01.031Z,1026.37
2018-10-07T22:56:28.462Z,1026.33
2018-10-07T22:57:55.928Z,1026.35
2018-10-07T22:59:23.134Z,1026.35
2018-10-07T23:00:50.403Z,1026.36
2018-10-07T23:02:17.612Z,1026.37
2018-10-07T23:03:44.641Z,1026.36
2018-10-07T23:05:11.986Z,1026.35
2018-10-07T23:06:39.150Z,1026.37
2018-10-07T23:08:06.417Z,1026.39
2018-10-07T23:09:33.814Z,1026.39
2018-10-07T23:11:00.982Z,1026.42
2018-10-07T23:12:28.259Z,1026.45
2018-10-07T23:13:55.541Z,1026.49
2018-10-07T23:15:22.317Z,1026.52
2018-10-07T23:16:48.899Z,1026.54
2018-10-07T23:18:15.691Z,1026.54
2018-10-07T23:19:42.785Z,1026.58
2018-10-07T23:21:09.996Z,1026.56
2018-10-07T23:22:37.240Z,1026.59
2018-10-07T23:24:03.943Z,1026.58
2018-10-07T23:25:31.179Z,1026.56
2018-10-07T23:26:58.516Z,1026.59
2018-10-07T23:28:25.729Z,1026.62
2018-10-07T23:29:52.963Z,1026.63
2018-10-07T23:31:20.301Z,1026.62
2018-10-07T23:32:47.141Z,1026.63
2018-10-07T23:34:13.959Z,1026.61
2018-10-07T23:35:41.183Z,1026.58
2018-10-07T23:37:08.331Z,1026.53
2018-10-07T23:38:35.578Z,1026.52
2018-10-07T23:40:03.081Z,1026.53
2018-10-07T23:41:30.272Z,1026.55
2018-10-07T23:42:57.519Z,1026.56
2018-10-07T23:44:24.796Z,1026.53
2018-10-07T23:45:52.095Z,1026.50
2018-10-07T23:47:19.388Z,1026.46
2018-10-07T23:48:46.562Z,1026.45
2018-10-07T23:50:13.813Z,1026.45
2018-10-07T23:51:41.167Z,1026.47
2018-10-07T23:53:07.917Z,1026.47
2018-10-07T23:54:34.770Z,1026.49
2018-10-07T23:56:01.979Z,1026.50
2018-10-07T23:57:29.244Z,1026.50
2018-10-07T23:58:56.311Z,1026.51
